sensor_id;sensor_type;location;lat;lon;timestamp;temperature;humidity
8485;DHT22;34555;49.34829940;8.43506100;2022-09-17T00:00:49;21.00;71.70
8485;DHT22;34555;49.34829940;8.43506100;2022-09-17T00:03:16;21.00;71.60
8485;DHT22;34555;49.34829940;8.43506100;2022-09-17T00:05:42;21.00;71.60
8485;DHT22;34555;49.34829940;8.43506100;2022-09-17T00:08:11;21.00;71.50
8485;DHT22;34555;49.34829940;8.43506100;2022-09-17T00:10:39;21.00;71.80
8485;DHT22;34555;49.34829940;8.43506100;2022-09-17T00:13:06;21.00;71.70
8485;DHT22;34555;49.34829940;8.43506100;2022-09-17T00:15:31;21.00;71.10
8485;DHT22;34555;49.34829940;8.43506100;2022-09-17T00:17:57;21.00;71.50
8485;DHT22;34555;49.34829940;8.43506100;2022-09-17T00:20:26;21.00;71.70
8485;DHT22;34555;49.34829940;8.43506100;2022-09-17T00:22:52;21.00;71.50
8485;DHT22;34555;49.34829940;8.43506100;2022-09-17T00:25:18;21.00;71.70
8485;DHT22;34555;49.34829940;8.43506100;2022-09-17T00:27:44;21.00;71.70
8485;DHT22;34555;49.34829940;8.43506100;2022-09-17T00:30:11;20.90;71.40
8485;DHT22;34555;49.34829940;8.43506100;2022-09-17T00:32:37;21.00;71.70
8485;DHT22;34555;49.34829940;8.43506100;2022-09-17T00:35:02;21.00;71.90
8485;DHT22;34555;49.34829940;8.43506100;2022-09-17T00:37:28;21.00;71.70
8485;DHT22;34555;49.34829940;8.43506100;2022-09-17T00:39:53;20.90;71.40
8485;DHT22;34555;49.34829940;8.43506100;2022-09-17T00:42:19;20.90;71.70
8485;DHT22;34555;49.34829940;8.43506100;2022-09-17T00:44:52;20.90;72.00
8485;DHT22;34555;49.34829940;8.43506100;2022-09-17T00:47:19;20.90;72.00
8485;DHT22;34555;49.34829940;8.43506100;2022-09-17T00:49:46;21.00;71.90
8485;DHT22;34555;49.34829940;8.43506100;2022-09-17T00:52:16;21.00;71.70
8485;DHT22;34555;49.34829940;8.43506100;2022-09-17T00:54:48;21.00;71.60
8485;DHT22;34555;49.34829940;8.43506100;2022-09-17T00:57:14;21.10;71.70
8485;DHT22;34555;49.34829940;8.43506100;2022-09-17T00:59:40;21.00;71.50
8485;DHT22;34555;49.34829940;8.43506100;2022-09-17T01:02:06;21.00;71.50
8485;DHT22;34555;49.34829940;8.43506100;2022-09-17T01:04:32;21.00;71.50
8485;DHT22;34555;49.34829940;8.43506100;2022-09-17T01:07:26;21.00;71.70
8485;DHT22;34555;49.34829940;8.43506100;2022-09-17T01:15:46;20.90;71.40
8485;DHT22;34555;49.34829940;8.43506100;2022-09-17T01:18:26;20.90;71.60
8485;DHT22;34555;49.34829940;8.43506100;2022-09-17T01:32:48;20.90;71.40
8485;DHT22;34555;49.34829940;8.43506100;2022-09-17T01:38:27;20.90;71.00
8485;DHT22;34555;49.34829940;8.43506100;2022-09-17T01:41:06;20.80;71.10
8485;DHT22;34555;49.34829940;8.43506100;2022-09-17T01:43:34;20.80;71.60
8485;DHT22;34555;49.34829940;8.43506100;2022-09-17T01:46:22;20.80;71.20
8485;DHT22;34555;49.34829940;8.43506100;2022-09-17T01:48:51;20.70;70.90
8485;DHT22;34555;49.34829940;8.43506100;2022-09-17T01:51:26;20.80;71.70
8485;DHT22;34555;49.34829940;8.43506100;2022-09-17T01:53:57;20.80;71.50
8485;DHT22;34555;49.34829940;8.43506100;2022-09-17T01:56:29;20.90;71.40
8485;DHT22;34555;49.34829940;8.43506100;2022-09-17T01:59:19;20.80;71.40
8485;DHT22;34555;49.34829940;8.43506100;2022-09-17T02:01:49;20.80;71.30
8485;DHT22;34555;49.34829940;8.43506100;2022-09-17T02:04:23;20.70;71.40
8485;DHT22;34555;49.34829940;8.43506100;2022-09-17T02:06:57;20.70;71.40
8485;DHT22;34555;49.34829940;8.43506100;2022-09-17T02:09:40;20.70;71.40
8485;DHT22;34555;49.34829940;8.43506100;2022-09-17T02:12:10;20.70;71.50
8485;DHT22;34555;49.34829940;8.43506100;2022-09-17T02:14:45;20.60;71.30
8485;DHT22;34555;49.34829940;8.43506100;2022-09-17T02:17:58;20.60;71.40
8485;DHT22;34555;49.34829940;8.43506100;2022-09-17T02:20:17;20.50;71.40
8485;DHT22;34555;49.34829940;8.43506100;2022-09-17T02:22:51;20.50;71.60
8485;DHT22;34555;49.34829940;8.43506100;2022-09-17T02:28:10;20.50;71.60
8485;DHT22;34555;49.34829940;8.43506100;2022-09-17T02:30:38;20.60;71.40
8485;DHT22;34555;49.34829940;8.43506100;2022-09-17T02:33:05;20.60;71.70
8485;DHT22;34555;49.34829940;8.43506100;2022-09-17T02:35:33;20.70;71.40
8485;DHT22;34555;49.34829940;8.43506100;2022-09-17T02:37:59;20.70;71.40
8485;DHT22;34555;49.34829940;8.43506100;2022-09-17T02:40:28;20.70;71.00
8485;DHT22;34555;49.34829940;8.43506100;2022-09-17T02:43:12;20.70;71.20
8485;DHT22;34555;49.34829940;8.43506100;2022-09-17T02:48:23;20.60;71.00
8485;DHT22;34555;49.34829940;8.43506100;2022-09-17T02:53:38;20.50;71.20
8485;DHT22;34555;49.34829940;8.43506100;2022-09-17T02:56:30;20.50;70.70
8485;DHT22;34555;49.34829940;8.43506100;2022-09-17T02:59:16;20.60;71.10
8485;DHT22;34555;49.34829940;8.43506100;2022-09-17T03:01:49;20.60;71.00
8485;DHT22;34555;49.34829940;8.43506100;2022-09-17T03:04:17;20.60;71.20
8485;DHT22;34555;49.34829940;8.43506100;2022-09-17T03:06:45;20.60;70.90
8485;DHT22;34555;49.34829940;8.43506100;2022-09-17T03:09:12;20.60;71.00
8485;DHT22;34555;49.34829940;8.43506100;2022-09-17T03:11:38;20.70;71.30
8485;DHT22;34555;49.34829940;8.43506100;2022-09-17T03:14:03;20.60;71.00
8485;DHT22;34555;49.34829940;8.43506100;2022-09-17T03:16:29;20.50;71.00
8485;DHT22;34555;49.34829940;8.43506100;2022-09-17T03:18:54;20.50;71.20
8485;DHT22;34555;49.34829940;8.43506100;2022-09-17T03:21:20;20.40;71.10
8485;DHT22;34555;49.34829940;8.43506100;2022-09-17T03:23:46;20.40;71.40
8485;DHT22;34555;49.34829940;8.43506100;2022-09-17T03:26:11;20.50;70.80
8485;DHT22;34555;49.34829940;8.43506100;2022-09-17T03:28:37;20.40;71.00
8485;DHT22;34555;49.34829940;8.43506100;2022-09-17T03:31:02;20.50;71.20
8485;DHT22;34555;49.34829940;8.43506100;2022-09-17T03:33:30;20.50;71.10
8485;DHT22;34555;49.34829940;8.43506100;2022-09-17T03:35:56;20.60;71.50
8485;DHT22;34555;49.34829940;8.43506100;2022-09-17T03:38:21;20.50;70.60
8485;DHT22;34555;49.34829940;8.43506100;2022-09-17T03:41:01;20.50;71.00
8485;DHT22;34555;49.34829940;8.43506100;2022-09-17T03:43:27;20.60;70.90
8485;DHT22;34555;49.34829940;8.43506100;2022-09-17T03:45:53;20.50;70.80
8485;DHT22;34555;49.34829940;8.43506100;2022-09-17T03:48:18;20.50;71.00
8485;DHT22;34555;49.34829940;8.43506100;2022-09-17T03:50:44;20.50;70.60
8485;DHT22;34555;49.34829940;8.43506100;2022-09-17T03:53:09;20.50;71.00
8485;DHT22;34555;49.34829940;8.43506100;2022-09-17T03:55:37;20.40;70.70
8485;DHT22;34555;49.34829940;8.43506100;2022-09-17T03:58:03;20.40;71.30
8485;DHT22;34555;49.34829940;8.43506100;2022-09-17T04:00:28;20.50;71.10
8485;DHT22;34555;49.34829940;8.43506100;2022-09-17T04:02:54;20.40;70.80
8485;DHT22;34555;49.34829940;8.43506100;2022-09-17T04:05:20;20.30;70.80
8485;DHT22;34555;49.34829940;8.43506100;2022-09-17T04:07:45;20.30;70.40
8485;DHT22;34555;49.34829940;8.43506100;2022-09-17T04:10:11;20.40;71.30
8485;DHT22;34555;49.34829940;8.43506100;2022-09-17T04:12:36;20.40;71.10
8485;DHT22;34555;49.34829940;8.43506100;2022-09-17T04:15:02;20.30;70.80
8485;DHT22;34555;49.34829940;8.43506100;2022-09-17T04:17:28;20.40;71.30
8485;DHT22;34555;49.34829940;8.43506100;2022-09-17T04:19:53;20.50;71.00
8485;DHT22;34555;49.34829940;8.43506100;2022-09-17T04:22:19;20.40;70.80
8485;DHT22;34555;49.34829940;8.43506100;2022-09-17T04:24:45;20.40;70.80
8485;DHT22;34555;49.34829940;8.43506100;2022-09-17T04:27:11;20.50;70.70
8485;DHT22;34555;49.34829940;8.43506100;2022-09-17T04:29:36;20.50;70.70
8485;DHT22;34555;49.34829940;8.43506100;2022-09-17T04:32:02;20.50;70.40
8485;DHT22;34555;49.34829940;8.43506100;2022-09-17T04:34:28;20.40;70.60
8485;DHT22;34555;49.34829940;8.43506100;2022-09-17T04:36:53;20.40;70.50
8485;DHT22;34555;49.34829940;8.43506100;2022-09-17T04:39:19;20.40;70.50
8485;DHT22;34555;49.34829940;8.43506100;2022-09-17T04:41:44;20.40;70.90
8485;DHT22;34555;49.34829940;8.43506100;2022-09-17T04:44:10;20.30;70.70
8485;DHT22;34555;49.34829940;8.43506100;2022-09-17T04:46:36;20.30;70.40
8485;DHT22;34555;49.34829940;8.43506100;2022-09-17T04:49:01;20.30;71.00
8485;DHT22;34555;49.34829940;8.43506100;2022-09-17T04:51:27;20.30;70.80
8485;DHT22;34555;49.34829940;8.43506100;2022-09-17T04:53:52;20.40;70.90
8485;DHT22;34555;49.34829940;8.43506100;2022-09-17T04:56:18;20.40;70.80
8485;DHT22;34555;49.34829940;8.43506100;2022-09-17T04:58:43;20.30;70.60
8485;DHT22;34555;49.34829940;8.43506100;2022-09-17T05:01:09;20.40;70.70
8485;DHT22;34555;49.34829940;8.43506100;2022-09-17T05:03:34;20.40;70.80
8485;DHT22;34555;49.34829940;8.43506100;2022-09-17T05:05:59;20.40;71.20
8485;DHT22;34555;49.34829940;8.43506100;2022-09-17T05:08:25;20.30;70.10
8485;DHT22;34555;49.34829940;8.43506100;2022-09-17T05:10:51;20.30;70.60
8485;DHT22;34555;49.34829940;8.43506100;2022-09-17T05:13:16;20.40;70.90
8485;DHT22;34555;49.34829940;8.43506100;2022-09-17T05:15:43;20.40;70.70
8485;DHT22;34555;49.34829940;8.43506100;2022-09-17T05:18:09;20.40;70.50
8485;DHT22;34555;49.34829940;8.43506100;2022-09-17T05:20:34;20.40;70.10
8485;DHT22;34555;49.34829940;8.43506100;2022-09-17T05:23:00;20.40;70.50
8485;DHT22;34555;49.34829940;8.43506100;2022-09-17T05:25:25;20.40;70.50
8485;DHT22;34555;49.34829940;8.43506100;2022-09-17T05:27:52;20.40;70.30
8485;DHT22;34555;49.34829940;8.43506100;2022-09-17T05:30:18;20.30;70.20
8485;DHT22;34555;49.34829940;8.43506100;2022-09-17T05:32:43;20.30;70.50
8485;DHT22;34555;49.34829940;8.43506100;2022-09-17T05:35:09;20.20;70.10
8485;DHT22;34555;49.34829940;8.43506100;2022-09-17T05:37:36;20.30;70.70
8485;DHT22;34555;49.34829940;8.43506100;2022-09-17T05:40:03;20.30;71.10
8485;DHT22;34555;49.34829940;8.43506100;2022-09-17T05:45:06;20.30;70.70
8485;DHT22;34555;49.34829940;8.43506100;2022-09-17T05:47:32;20.30;70.90
8485;DHT22;34555;49.34829940;8.43506100;2022-09-17T05:49:59;20.30;70.70
8485;DHT22;34555;49.34829940;8.43506100;2022-09-17T05:52:28;20.30;70.70
8485;DHT22;34555;49.34829940;8.43506100;2022-09-17T05:54:54;20.30;70.60
8485;DHT22;34555;49.34829940;8.43506100;2022-09-17T05:57:20;20.30;70.80
8485;DHT22;34555;49.34829940;8.43506100;2022-09-17T05:59:45;20.20;70.50
8485;DHT22;34555;49.34829940;8.43506100;2022-09-17T06:02:12;20.30;70.80
8485;DHT22;34555;49.34829940;8.43506100;2022-09-17T06:04:38;20.40;70.80
8485;DHT22;34555;49.34829940;8.43506100;2022-09-17T06:07:04;20.40;70.70
8485;DHT22;34555;49.34829940;8.43506100;2022-09-17T06:09:34;20.30;70.50
8485;DHT22;34555;49.34829940;8.43506100;2022-09-17T06:12:00;20.30;70.70
8485;DHT22;34555;49.34829940;8.43506100;2022-09-17T06:14:26;20.40;70.70
8485;DHT22;34555;49.34829940;8.43506100;2022-09-17T06:16:51;20.30;70.60
8485;DHT22;34555;49.34829940;8.43506100;2022-09-17T06:19:17;20.30;70.70
8485;DHT22;34555;49.34829940;8.43506100;2022-09-17T06:21:42;20.40;70.70
8485;DHT22;34555;49.34829940;8.43506100;2022-09-17T06:24:09;20.30;70.20
8485;DHT22;34555;49.34829940;8.43506100;2022-09-17T06:26:34;20.10;70.50
8485;DHT22;34555;49.34829940;8.43506100;2022-09-17T06:29:00;20.20;70.70
8485;DHT22;34555;49.34829940;8.43506100;2022-09-17T06:31:25;20.10;70.50
8485;DHT22;34555;49.34829940;8.43506100;2022-09-17T06:33:51;20.20;70.80
8485;DHT22;34555;49.34829940;8.43506100;2022-09-17T06:36:16;20.30;70.70
8485;DHT22;34555;49.34829940;8.43506100;2022-09-17T06:38:42;20.30;70.70
8485;DHT22;34555;49.34829940;8.43506100;2022-09-17T06:41:08;20.20;70.30
8485;DHT22;34555;49.34829940;8.43506100;2022-09-17T06:43:33;20.20;70.60
8485;DHT22;34555;49.34829940;8.43506100;2022-09-17T06:46:01;20.30;70.70
8485;DHT22;34555;49.34829940;8.43506100;2022-09-17T06:48:28;20.20;70.50
8485;DHT22;34555;49.34829940;8.43506100;2022-09-17T06:50:55;20.30;70.50
8485;DHT22;34555;49.34829940;8.43506100;2022-09-17T06:53:22;20.30;70.50
8485;DHT22;34555;49.34829940;8.43506100;2022-09-17T06:55:48;20.30;70.50
8485;DHT22;34555;49.34829940;8.43506100;2022-09-17T06:58:13;20.30;70.20
8485;DHT22;34555;49.34829940;8.43506100;2022-09-17T07:00:39;20.30;70.50
8485;DHT22;34555;49.34829940;8.43506100;2022-09-17T07:03:05;20.40;70.50
8485;DHT22;34555;49.34829940;8.43506100;2022-09-17T07:05:30;20.40;70.50
8485;DHT22;34555;49.34829940;8.43506100;2022-09-17T07:08:03;20.40;70.70
8485;DHT22;34555;49.34829940;8.43506100;2022-09-17T07:10:29;20.40;70.00
8485;DHT22;34555;49.34829940;8.43506100;2022-09-17T07:12:55;20.40;69.90
8485;DHT22;34555;49.34829940;8.43506100;2022-09-17T07:15:21;20.40;69.80
8485;DHT22;34555;49.34829940;8.43506100;2022-09-17T07:17:46;20.50;70.60
8485;DHT22;34555;49.34829940;8.43506100;2022-09-17T07:20:13;20.50;69.90
8485;DHT22;34555;49.34829940;8.43506100;2022-09-17T07:22:38;20.50;70.40
8485;DHT22;34555;49.34829940;8.43506100;2022-09-17T07:25:05;20.60;70.30
8485;DHT22;34555;49.34829940;8.43506100;2022-09-17T07:27:31;20.60;70.00
8485;DHT22;34555;49.34829940;8.43506100;2022-09-17T07:29:57;20.60;70.20
8485;DHT22;34555;49.34829940;8.43506100;2022-09-17T07:32:23;20.70;70.10
8485;DHT22;34555;49.34829940;8.43506100;2022-09-17T07:34:48;20.60;70.00
8485;DHT22;34555;49.34829940;8.43506100;2022-09-17T07:37:15;20.70;70.20
8485;DHT22;34555;49.34829940;8.43506100;2022-09-17T07:39:41;20.70;70.00
8485;DHT22;34555;49.34829940;8.43506100;2022-09-17T07:42:07;20.70;70.10
8485;DHT22;34555;49.34829940;8.43506100;2022-09-17T07:44:33;20.70;69.80
8485;DHT22;34555;49.34829940;8.43506100;2022-09-17T07:46:58;20.80;69.60
8485;DHT22;34555;49.34829940;8.43506100;2022-09-17T07:49:24;20.80;69.00
8485;DHT22;34555;49.34829940;8.43506100;2022-09-17T07:51:50;20.80;69.20
8485;DHT22;34555;49.34829940;8.43506100;2022-09-17T07:54:16;20.80;69.00
8485;DHT22;34555;49.34829940;8.43506100;2022-09-17T07:56:41;20.80;68.70
8485;DHT22;34555;49.34829940;8.43506100;2022-09-17T07:59:08;20.80;68.50
8485;DHT22;34555;49.34829940;8.43506100;2022-09-17T08:01:34;20.80;68.80
8485;DHT22;34555;49.34829940;8.43506100;2022-09-17T08:04:01;20.80;68.60
8485;DHT22;34555;49.34829940;8.43506100;2022-09-17T08:06:27;20.90;68.90
8485;DHT22;34555;49.34829940;8.43506100;2022-09-17T08:08:53;20.90;69.00
8485;DHT22;34555;49.34829940;8.43506100;2022-09-17T08:11:21;20.70;64.40
8485;DHT22;34555;49.34829940;8.43506100;2022-09-17T08:13:48;20.70;66.90
8485;DHT22;34555;49.34829940;8.43506100;2022-09-17T08:16:14;20.70;67.20
8485;DHT22;34555;49.34829940;8.43506100;2022-09-17T08:18:40;20.90;68.00
8485;DHT22;34555;49.34829940;8.43506100;2022-09-17T08:21:08;20.90;68.10
8485;DHT22;34555;49.34829940;8.43506100;2022-09-17T08:23:36;20.90;69.00
8485;DHT22;34555;49.34829940;8.43506100;2022-09-17T08:26:01;20.90;68.70
8485;DHT22;34555;49.34829940;8.43506100;2022-09-17T08:28:29;20.90;68.10
8485;DHT22;34555;49.34829940;8.43506100;2022-09-17T08:31:06;20.90;68.10
8485;DHT22;34555;49.34829940;8.43506100;2022-09-17T08:33:37;20.90;67.80
8485;DHT22;34555;49.34829940;8.43506100;2022-09-17T08:36:04;21.00;68.20
8485;DHT22;34555;49.34829940;8.43506100;2022-09-17T08:38:31;21.00;68.20
8485;DHT22;34555;49.34829940;8.43506100;2022-09-17T08:44:25;21.10;68.00
8485;DHT22;34555;49.34829940;8.43506100;2022-09-17T08:46:59;21.10;67.60
8485;DHT22;34555;49.34829940;8.43506100;2022-09-17T08:49:45;21.10;67.30
8485;DHT22;34555;49.34829940;8.43506100;2022-09-17T08:55:27;21.00;65.90
8485;DHT22;34555;49.34829940;8.43506100;2022-09-17T09:06:01;20.90;64.90
8485;DHT22;34555;49.34829940;8.43506100;2022-09-17T09:08:59;20.80;64.70
8485;DHT22;34555;49.34829940;8.43506100;2022-09-17T09:11:29;20.80;64.40
8485;DHT22;34555;49.34829940;8.43506100;2022-09-17T09:14:21;20.90;64.10
8485;DHT22;34555;49.34829940;8.43506100;2022-09-17T09:16:49;20.90;64.30
8485;DHT22;34555;49.34829940;8.43506100;2022-09-17T09:19:26;20.90;63.80
8485;DHT22;34555;49.34829940;8.43506100;2022-09-17T09:22:13;20.90;63.70
8485;DHT22;34555;49.34829940;8.43506100;2022-09-17T09:24:44;21.00;63.60
8485;DHT22;34555;49.34829940;8.43506100;2022-09-17T09:27:27;21.10;63.60
8485;DHT22;34555;49.34829940;8.43506100;2022-09-17T09:30:10;21.10;63.20
8485;DHT22;34555;49.34829940;8.43506100;2022-09-17T09:35:22;21.10;63.00
8485;DHT22;34555;49.34829940;8.43506100;2022-09-17T09:40:35;21.00;62.70
8485;DHT22;34555;49.34829940;8.43506100;2022-09-17T09:43:08;21.00;63.10
8485;DHT22;34555;49.34829940;8.43506100;2022-09-17T09:45:57;20.90;62.90
8485;DHT22;34555;49.34829940;8.43506100;2022-09-17T09:48:49;21.00;63.10
8485;DHT22;34555;49.34829940;8.43506100;2022-09-17T09:51:30;21.00;62.90
8485;DHT22;34555;49.34829940;8.43506100;2022-09-17T09:59:11;21.10;62.80
8485;DHT22;34555;49.34829940;8.43506100;2022-09-17T10:01:40;21.10;62.40
8485;DHT22;34555;49.34829940;8.43506100;2022-09-17T10:04:16;21.10;62.40
8485;DHT22;34555;49.34829940;8.43506100;2022-09-17T10:06:42;21.10;62.80
8485;DHT22;34555;49.34829940;8.43506100;2022-09-17T10:09:09;21.10;63.30
8485;DHT22;34555;49.34829940;8.43506100;2022-09-17T10:11:35;21.10;62.70
8485;DHT22;34555;49.34829940;8.43506100;2022-09-17T10:14:22;21.10;63.20
8485;DHT22;34555;49.34829940;8.43506100;2022-09-17T10:16:49;21.10;63.30
8485;DHT22;34555;49.34829940;8.43506100;2022-09-17T10:19:19;21.10;62.90
8485;DHT22;34555;49.34829940;8.43506100;2022-09-17T10:21:50;21.00;62.60
8485;DHT22;34555;49.34829940;8.43506100;2022-09-17T10:24:22;21.00;62.40
8485;DHT22;34555;49.34829940;8.43506100;2022-09-17T10:26:49;21.00;62.10
8485;DHT22;34555;49.34829940;8.43506100;2022-09-17T10:29:18;21.10;62.40
8485;DHT22;34555;49.34829940;8.43506100;2022-09-17T10:31:51;21.10;62.10
8485;DHT22;34555;49.34829940;8.43506100;2022-09-17T10:34:20;21.10;62.00
8485;DHT22;34555;49.34829940;8.43506100;2022-09-17T10:36:47;21.00;61.30
8485;DHT22;34555;49.34829940;8.43506100;2022-09-17T10:39:32;21.00;61.10
8485;DHT22;34555;49.34829940;8.43506100;2022-09-17T10:42:32;21.00;60.90
8485;DHT22;34555;49.34829940;8.43506100;2022-09-17T10:44:51;21.00;60.70
8485;DHT22;34555;49.34829940;8.43506100;2022-09-17T10:47:36;21.10;60.30
8485;DHT22;34555;49.34829940;8.43506100;2022-09-17T10:50:15;21.10;60.50
8485;DHT22;34555;49.34829940;8.43506100;2022-09-17T10:52:47;21.10;60.20
8485;DHT22;34555;49.34829940;8.43506100;2022-09-17T11:12:29;20.80;58.70
8485;DHT22;34555;49.34829940;8.43506100;2022-09-17T11:15:12;20.80;58.40
8485;DHT22;34555;49.34829940;8.43506100;2022-09-17T11:18:07;20.80;58.10
8485;DHT22;34555;49.34829940;8.43506100;2022-09-17T11:23:48;20.90;58.00
8485;DHT22;34555;49.34829940;8.43506100;2022-09-17T11:26:27;20.90;57.90
8485;DHT22;34555;49.34829940;8.43506100;2022-09-17T11:32:21;20.90;58.30
8485;DHT22;34555;49.34829940;8.43506100;2022-09-17T11:37:44;20.90;58.60
8485;DHT22;34555;49.34829940;8.43506100;2022-09-17T11:40:18;20.90;58.50
8485;DHT22;34555;49.34829940;8.43506100;2022-09-17T11:45:19;20.90;58.50
8485;DHT22;34555;49.34829940;8.43506100;2022-09-17T11:48:09;20.90;58.50
8485;DHT22;34555;49.34829940;8.43506100;2022-09-17T11:50:40;20.90;58.40
8485;DHT22;34555;49.34829940;8.43506100;2022-09-17T11:53:18;20.90;58.60
8485;DHT22;34555;49.34829940;8.43506100;2022-09-17T11:55:54;20.90;58.60
8485;DHT22;34555;49.34829940;8.43506100;2022-09-17T12:01:13;20.90;58.50
8485;DHT22;34555;49.34829940;8.43506100;2022-09-17T12:03:50;20.90;58.60
8485;DHT22;34555;49.34829940;8.43506100;2022-09-17T12:06:22;20.90;58.50
8485;DHT22;34555;49.34829940;8.43506100;2022-09-17T12:09:02;20.90;58.40
8485;DHT22;34555;49.34829940;8.43506100;2022-09-17T12:12:02;21.00;58.40
8485;DHT22;34555;49.34829940;8.43506100;2022-09-17T12:14:56;21.00;58.40
8485;DHT22;34555;49.34829940;8.43506100;2022-09-17T12:17:33;21.00;57.90
8485;DHT22;34555;49.34829940;8.43506100;2022-09-17T12:20:06;20.90;57.80
8485;DHT22;34555;49.34829940;8.43506100;2022-09-17T12:22:38;21.00;57.80
8485;DHT22;34555;49.34829940;8.43506100;2022-09-17T12:25:09;21.00;57.80
8485;DHT22;34555;49.34829940;8.43506100;2022-09-17T12:27:50;20.90;57.30
8485;DHT22;34555;49.34829940;8.43506100;2022-09-17T12:30:20;21.00;57.30
8485;DHT22;34555;49.34829940;8.43506100;2022-09-17T12:32:54;20.90;56.60
8485;DHT22;34555;49.34829940;8.43506100;2022-09-17T12:40:43;21.00;56.50
8485;DHT22;34555;49.34829940;8.43506100;2022-09-17T12:54:44;21.10;57.70
8485;DHT22;34555;49.34829940;8.43506100;2022-09-17T13:00:12;21.30;58.00
8485;DHT22;34555;49.34829940;8.43506100;2022-09-17T13:03:14;21.30;58.20
8485;DHT22;34555;49.34829940;8.43506100;2022-09-17T13:06:06;21.40;58.40
8485;DHT22;34555;49.34829940;8.43506100;2022-09-17T13:14:04;21.40;58.90
8485;DHT22;34555;49.34829940;8.43506100;2022-09-17T13:16:54;21.50;59.00
8485;DHT22;34555;49.34829940;8.43506100;2022-09-17T13:24:38;21.50;59.30
8485;DHT22;34555;49.34829940;8.43506100;2022-09-17T13:27:04;21.50;59.60
8485;DHT22;34555;49.34829940;8.43506100;2022-09-17T13:34:53;21.40;59.90
8485;DHT22;34555;49.34829940;8.43506100;2022-09-17T13:37:19;21.50;59.90
8485;DHT22;34555;49.34829940;8.43506100;2022-09-17T13:39:49;21.40;60.00
8485;DHT22;34555;49.34829940;8.43506100;2022-09-17T13:42:29;21.40;60.10
8485;DHT22;34555;49.34829940;8.43506100;2022-09-17T13:45:04;21.40;60.20
8485;DHT22;34555;49.34829940;8.43506100;2022-09-17T13:47:30;21.40;58.60
8485;DHT22;34555;49.34829940;8.43506100;2022-09-17T13:50:09;21.40;58.50
8485;DHT22;34555;49.34829940;8.43506100;2022-09-17T13:52:42;21.40;59.00
8485;DHT22;34555;49.34829940;8.43506100;2022-09-17T13:57:59;21.50;58.70
8485;DHT22;34555;49.34829940;8.43506100;2022-09-17T14:00:46;21.70;58.90
8485;DHT22;34555;49.34829940;8.43506100;2022-09-17T14:21:58;21.30;58.80
8485;DHT22;34555;49.34829940;8.43506100;2022-09-17T14:40:45;21.20;58.70
8485;DHT22;34555;49.34829940;8.43506100;2022-09-17T14:43:18;21.30;58.40
8485;DHT22;34555;49.34829940;8.43506100;2022-09-17T14:45:49;21.20;58.10
8485;DHT22;34555;49.34829940;8.43506100;2022-09-17T14:48:34;21.10;58.20
8485;DHT22;34555;49.34829940;8.43506100;2022-09-17T14:51:22;21.20;58.30
8485;DHT22;34555;49.34829940;8.43506100;2022-09-17T14:54:15;21.20;57.90
8485;DHT22;34555;49.34829940;8.43506100;2022-09-17T14:56:59;21.30;58.50
8485;DHT22;34555;49.34829940;8.43506100;2022-09-17T14:59:40;21.30;58.10
8485;DHT22;34555;49.34829940;8.43506100;2022-09-17T15:04:54;21.00;57.80
8485;DHT22;34555;49.34829940;8.43506100;2022-09-17T15:07:22;21.00;57.80
8485;DHT22;34555;49.34829940;8.43506100;2022-09-17T15:09:47;20.90;59.00
8485;DHT22;34555;49.34829940;8.43506100;2022-09-17T15:12:16;20.80;57.90
8485;DHT22;34555;49.34829940;8.43506100;2022-09-17T15:14:45;20.80;58.40
8485;DHT22;34555;49.34829940;8.43506100;2022-09-17T15:17:14;20.70;57.90
8485;DHT22;34555;49.34829940;8.43506100;2022-09-17T15:19:44;20.70;58.70
8485;DHT22;34555;49.34829940;8.43506100;2022-09-17T15:22:15;20.60;58.30
8485;DHT22;34555;49.34829940;8.43506100;2022-09-17T15:24:57;20.60;59.00
8485;DHT22;34555;49.34829940;8.43506100;2022-09-17T15:27:36;20.90;59.40
8485;DHT22;34555;49.34829940;8.43506100;2022-09-17T15:32:33;21.20;59.40
8485;DHT22;34555;49.34829940;8.43506100;2022-09-17T15:37:50;21.30;59.50
8485;DHT22;34555;49.34829940;8.43506100;2022-09-17T15:40:32;21.30;59.40
8485;DHT22;34555;49.34829940;8.43506100;2022-09-17T15:43:24;21.20;58.90
8485;DHT22;34555;49.34829940;8.43506100;2022-09-17T15:45:51;21.20;59.10
8485;DHT22;34555;49.34829940;8.43506100;2022-09-17T15:50:57;21.10;59.30
8485;DHT22;34555;49.34829940;8.43506100;2022-09-17T15:53:26;21.20;59.60
8485;DHT22;34555;49.34829940;8.43506100;2022-09-17T15:56:13;21.20;59.40
8485;DHT22;34555;49.34829940;8.43506100;2022-09-17T16:08:59;21.10;60.20
8485;DHT22;34555;49.34829940;8.43506100;2022-09-17T16:11:30;21.20;60.90
8485;DHT22;34555;49.34829940;8.43506100;2022-09-17T16:13:58;21.20;60.60
8485;DHT22;34555;49.34829940;8.43506100;2022-09-17T16:16:35;21.20;61.10
8485;DHT22;34555;49.34829940;8.43506100;2022-09-17T16:19:02;21.20;60.90
8485;DHT22;34555;49.34829940;8.43506100;2022-09-17T16:21:27;21.20;61.20
8485;DHT22;34555;49.34829940;8.43506100;2022-09-17T16:23:53;21.20;61.00
8485;DHT22;34555;49.34829940;8.43506100;2022-09-17T16:26:22;21.20;61.10
8485;DHT22;34555;49.34829940;8.43506100;2022-09-17T16:28:52;21.20;61.10
8485;DHT22;34555;49.34829940;8.43506100;2022-09-17T16:31:18;21.20;60.90
8485;DHT22;34555;49.34829940;8.43506100;2022-09-17T16:33:44;21.20;61.40
8485;DHT22;34555;49.34829940;8.43506100;2022-09-17T16:36:10;21.20;61.10
8485;DHT22;34555;49.34829940;8.43506100;2022-09-17T16:38:35;21.20;61.00
8485;DHT22;34555;49.34829940;8.43506100;2022-09-17T16:41:04;21.20;61.30
8485;DHT22;34555;49.34829940;8.43506100;2022-09-17T16:43:30;21.20;61.10
8485;DHT22;34555;49.34829940;8.43506100;2022-09-17T16:46:00;21.20;61.50
8485;DHT22;34555;49.34829940;8.43506100;2022-09-17T16:48:26;21.20;61.30
8485;DHT22;34555;49.34829940;8.43506100;2022-09-17T16:50:51;21.20;61.60
8485;DHT22;34555;49.34829940;8.43506100;2022-09-17T16:53:17;21.20;61.70
8485;DHT22;34555;49.34829940;8.43506100;2022-09-17T16:55:42;21.10;61.50